sensor_id;sensor_type;location;lat;lon;timestamp;pressure;altitude;pressure_sealevel;temperature;humidity
63006;BME280;53704;52.532;6.426;2023-04-27T00:01:20;102114.72;;;1.04;100.00
63006;BME280;53704;52.532;6.426;2023-04-27T00:03:46;102108.72;;;1.19;100.00
63006;BME280;53704;52.532;6.426;2023-04-27T00:06:11;102106.75;;;1.42;100.00
63006;BME280;53704;52.532;6.426;2023-04-27T00:08:37;102114.16;;;1.16;100.00
63006;BME280;53704;52.532;6.426;2023-04-27T00:11:03;102112.56;;;1.31;100.00
63006;BME280;53704;52.532;6.426;2023-04-27T00:13:28;102104.88;;;1.63;100.00
63006;BME280;53704;52.532;6.426;2023-04-27T00:15:54;102105.81;;;1.62;100.00
63006;BME280;53704;52.532;6.426;2023-04-27T00:18:19;102107.19;;;1.52;100.00
63006;BME280;53704;52.532;6.426;2023-04-27T00:20:45;102107.72;;;1.03;100.00
63006;BME280;53704;52.532;6.426;2023-04-27T00:23:11;102108.41;;;0.87;100.00
63006;BME280;53704;52.532;6.426;2023-04-27T00:25:36;102114.09;;;1.18;100.00
63006;BME280;53704;52.532;6.426;2023-04-27T00:28:02;102111.06;;;0.87;100.00
63006;BME280;53704;52.532;6.426;2023-04-27T00:30:27;102114.13;;;0.78;100.00
63006;BME280;53704;52.532;6.426;2023-04-27T00:32:53;102117.81;;;0.74;100.00
63006;BME280;53704;52.532;6.426;2023-04-27T00:35:18;102116.50;;;0.84;100.00
63006;BME280;53704;52.532;6.426;2023-04-27T00:37:44;102115.44;;;1.07;100.00
63006;BME280;53704;52.532;6.426;2023-04-27T00:40:10;102112.88;;;1.25;100.00
63006;BME280;53704;52.532;6.426;2023-04-27T00:42:36;102120.47;;;1.33;100.00
63006;BME280;53704;52.532;6.426;2023-04-27T00:45:05;102121.19;;;0.98;100.00
63006;BME280;53704;52.532;6.426;2023-04-27T00:47:33;102116.00;;;0.76;100.00
63006;BME280;53704;52.532;6.426;2023-04-27T00:49:59;102115.34;;;0.90;100.00
63006;BME280;53704;52.532;6.426;2023-04-27T00:52:25;102113.22;;;0.98;100.00
63006;BME280;53704;52.532;6.426;2023-04-27T00:54:51;102117.13;;;0.70;100.00
63006;BME280;53704;52.532;6.426;2023-04-27T00:57:17;102120.69;;;0.49;100.00
63006;BME280;53704;52.532;6.426;2023-04-27T00:59:42;102120.81;;;0.46;100.00
63006;BME280;53704;52.532;6.426;2023-04-27T01:02:08;102118.25;;;0.44;100.00
63006;BME280;53704;52.532;6.426;2023-04-27T01:04:34;102122.81;;;0.41;100.00
63006;BME280;53704;52.532;6.426;2023-04-27T01:07:01;102121.25;;;0.37;100.00
63006;BME280;53704;52.532;6.426;2023-04-27T01:09:27;102115.53;;;0.25;100.00
63006;BME280;53704;52.532;6.426;2023-04-27T01:11:52;102116.28;;;0.49;100.00
63006;BME280;53704;52.532;6.426;2023-04-27T01:14:18;102115.88;;;0.38;100.00
63006;BME280;53704;52.532;6.426;2023-04-27T01:16:43;102113.09;;;0.21;100.00
63006;BME280;53704;52.532;6.426;2023-04-27T01:19:10;102116.16;;;-0.11;100.00
63006;BME280;53704;52.532;6.426;2023-04-27T01:21:36;102117.31;;;0.04;100.00
63006;BME280;53704;52.532;6.426;2023-04-27T01:24:03;102123.69;;;0.21;100.00
63006;BME280;53704;52.532;6.426;2023-04-27T01:26:29;102109.13;;;0.31;100.00
63006;BME280;53704;52.532;6.426;2023-04-27T01:28:55;102114.47;;;0.50;100.00
63006;BME280;53704;52.532;6.426;2023-04-27T01:31:21;102110.59;;;0.38;100.00
63006;BME280;53704;52.532;6.426;2023-04-27T01:33:46;102115.75;;;0.41;100.00
63006;BME280;53704;52.532;6.426;2023-04-27T01:36:14;102101.88;;;0.14;100.00
63006;BME280;53704;52.532;6.426;2023-04-27T01:38:40;102111.31;;;0.21;100.00
63006;BME280;53704;52.532;6.426;2023-04-27T01:41:06;102114.78;;;0.01;100.00
63006;BME280;53704;52.532;6.426;2023-04-27T01:43:34;102109.38;;;-0.18;100.00
63006;BME280;53704;52.532;6.426;2023-04-27T01:46:10;102108.88;;;-0.06;100.00
63006;BME280;53704;52.532;6.426;2023-04-27T01:48:37;102109.53;;;-0.01;100.00
63006;BME280;53704;52.532;6.426;2023-04-27T01:51:03;102116.69;;;-0.03;100.00
63006;BME280;53704;52.532;6.426;2023-04-27T01:53:29;102119.44;;;-0.26;100.00
63006;BME280;53704;52.532;6.426;2023-04-27T01:55:55;102120.38;;;-0.07;100.00
63006;BME280;53704;52.532;6.426;2023-04-27T01:58:21;102129.78;;;0.23;100.00
63006;BME280;53704;52.532;6.426;2023-04-27T02:00:46;102128.50;;;0.11;100.00
63006;BME280;53704;52.532;6.426;2023-04-27T02:03:12;102121.63;;;0.07;100.00
63006;BME280;53704;52.532;6.426;2023-04-27T02:05:37;102127.66;;;-0.12;100.00
63006;BME280;53704;52.532;6.426;2023-04-27T02:08:03;102135.06;;;-0.20;100.00
63006;BME280;53704;52.532;6.426;2023-04-27T02:10:28;102129.91;;;-0.23;100.00
63006;BME280;53704;52.532;6.426;2023-04-27T02:12:54;102133.28;;;-0.20;100.00
63006;BME280;53704;52.532;6.426;2023-04-27T02:15:19;102137.91;;;-0.25;100.00
63006;BME280;53704;52.532;6.426;2023-04-27T02:17:45;102132.47;;;0.01;100.00
63006;BME280;53704;52.532;6.426;2023-04-27T02:20:13;102128.09;;;-0.01;100.00
63006;BME280;53704;52.532;6.426;2023-04-27T02:22:42;102131.09;;;-0.10;100.00
63006;BME280;53704;52.532;6.426;2023-04-27T02:25:09;102136.41;;;-0.10;100.00
63006;BME280;53704;52.532;6.426;2023-04-27T02:27:41;102132.84;;;-0.09;100.00
63006;BME280;53704;52.532;6.426;2023-04-27T02:30:08;102127.59;;;-0.10;100.00
63006;BME280;53704;52.532;6.426;2023-04-27T02:32:34;102118.72;;;0.13;100.00
63006;BME280;53704;52.532;6.426;2023-04-27T02:35:00;102126.88;;;-0.14;100.00
63006;BME280;53704;52.532;6.426;2023-04-27T02:37:26;102124.28;;;-0.15;100.00
63006;BME280;53704;52.532;6.426;2023-04-27T02:39:52;102125.38;;;-0.21;100.00
63006;BME280;53704;52.532;6.426;2023-04-27T02:42:18;102117.56;;;-0.24;100.00
63006;BME280;53704;52.532;6.426;2023-04-27T02:44:43;102117.88;;;-0.10;100.00
63006;BME280;53704;52.532;6.426;2023-04-27T02:47:09;102119.44;;;-0.26;100.00
63006;BME280;53704;52.532;6.426;2023-04-27T02:49:35;102114.50;;;-0.35;100.00
63006;BME280;53704;52.532;6.426;2023-04-27T02:52:01;102107.94;;;-0.25;100.00
63006;BME280;53704;52.532;6.426;2023-04-27T02:54:26;102112.53;;;-0.30;100.00
63006;BME280;53704;52.532;6.426;2023-04-27T02:56:52;102114.69;;;-0.40;100.00
63006;BME280;53704;52.532;6.426;2023-04-27T02:59:20;102104.94;;;-0.40;100.00
63006;BME280;53704;52.532;6.426;2023-04-27T03:01:46;102112.03;;;-0.62;100.00
63006;BME280;53704;52.532;6.426;2023-04-27T03:04:11;102103.31;;;-0.42;100.00
63006;BME280;53704;52.532;6.426;2023-04-27T03:06:41;102099.22;;;-0.51;100.00
63006;BME280;53704;52.532;6.426;2023-04-27T03:09:07;102102.94;;;-0.55;100.00
63006;BME280;53704;52.532;6.426;2023-04-27T03:11:35;102091.94;;;-0.66;100.00
63006;BME280;53704;52.532;6.426;2023-04-27T03:14:00;102089.53;;;-0.73;100.00
63006;BME280;53704;52.532;6.426;2023-04-27T03:16:26;102080.81;;;-0.76;100.00
63006;BME280;53704;52.532;6.426;2023-04-27T03:18:51;102075.59;;;-0.33;100.00
63006;BME280;53704;52.532;6.426;2023-04-27T03:21:17;102078.22;;;-0.78;100.00
63006;BME280;53704;52.532;6.426;2023-04-27T03:23:43;102083.53;;;-1.01;100.00
63006;BME280;53704;52.532;6.426;2023-04-27T03:26:10;102088.41;;;-0.67;100.00
63006;BME280;53704;52.532;6.426;2023-04-27T03:28:36;102093.41;;;-0.83;100.00
63006;BME280;53704;52.532;6.426;2023-04-27T03:31:05;102088.03;;;-0.80;100.00
63006;BME280;53704;52.532;6.426;2023-04-27T03:33:31;102079.47;;;-0.86;100.00
63006;BME280;53704;52.532;6.426;2023-04-27T03:35:57;102084.03;;;-0.90;100.00
63006;BME280;53704;52.532;6.426;2023-04-27T03:38:23;102093.38;;;-1.05;100.00
63006;BME280;53704;52.532;6.426;2023-04-27T03:40:49;102094.44;;;-1.09;100.00
63006;BME280;53704;52.532;6.426;2023-04-27T03:43:15;102110.63;;;-1.18;100.00
63006;BME280;53704;52.532;6.426;2023-04-27T03:45:40;102108.31;;;-1.28;100.00
63006;BME280;53704;52.532;6.426;2023-04-27T03:48:06;102104.69;;;-1.01;100.00
63006;BME280;53704;52.532;6.426;2023-04-27T03:50:31;102110.56;;;-0.69;100.00
63006;BME280;53704;52.532;6.426;2023-04-27T03:52:57;102110.63;;;-0.95;100.00
63006;BME280;53704;52.532;6.426;2023-04-27T03:55:22;102112.16;;;-1.13;100.00
63006;BME280;53704;52.532;6.426;2023-04-27T03:57:48;102109.13;;;-0.78;100.00
63006;BME280;53704;52.532;6.426;2023-04-27T04:00:13;102107.03;;;-0.94;100.00
63006;BME280;53704;52.532;6.426;2023-04-27T04:02:40;102115.78;;;-1.15;100.00
63006;BME280;53704;52.532;6.426;2023-04-27T04:05:06;102116.63;;;-1.38;100.00
63006;BME280;53704;52.532;6.426;2023-04-27T04:07:31;102123.97;;;-1.47;100.00
63006;BME280;53704;52.532;6.426;2023-04-27T04:09:57;102123.31;;;-1.28;100.00
63006;BME280;53704;52.532;6.426;2023-04-27T04:12:22;102116.09;;;-0.99;100.00
63006;BME280;53704;52.532;6.426;2023-04-27T04:14:48;102099.34;;;-1.00;100.00
63006;BME280;53704;52.532;6.426;2023-04-27T04:17:14;102108.19;;;-1.24;100.00
63006;BME280;53704;52.532;6.426;2023-04-27T04:19:39;102115.50;;;-1.31;100.00
63006;BME280;53704;52.532;6.426;2023-04-27T04:22:05;102122.72;;;-1.13;100.00
63006;BME280;53704;52.532;6.426;2023-04-27T04:24:30;102117.28;;;-0.84;100.00
63006;BME280;53704;52.532;6.426;2023-04-27T04:26:56;102123.19;;;-1.25;100.00
63006;BME280;53704;52.532;6.426;2023-04-27T04:29:22;102121.75;;;-1.34;100.00
63006;BME280;53704;52.532;6.426;2023-04-27T04:31:49;102125.19;;;-1.32;100.00
63006;BME280;53704;52.532;6.426;2023-04-27T04:34:14;102129.19;;;-0.96;100.00
63006;BME280;53704;52.532;6.426;2023-04-27T04:36:40;102123.78;;;-0.93;100.00
63006;BME280;53704;52.532;6.426;2023-04-27T04:39:05;102135.72;;;-1.06;100.00
63006;BME280;53704;52.532;6.426;2023-04-27T04:41:31;102137.22;;;-1.23;100.00
63006;BME280;53704;52.532;6.426;2023-04-27T04:43:59;102135.47;;;-1.24;100.00
63006;BME280;53704;52.532;6.426;2023-04-27T04:46:25;102133.03;;;-1.05;100.00
63006;BME280;53704;52.532;6.426;2023-04-27T04:48:50;102133.59;;;-0.97;100.00
63006;BME280;53704;52.532;6.426;2023-04-27T04:51:16;102116.78;;;-0.94;100.00
63006;BME280;53704;52.532;6.426;2023-04-27T04:53:41;102129.75;;;-1.12;100.00
63006;BME280;53704;52.532;6.426;2023-04-27T04:56:11;102138.13;;;-1.24;100.00
63006;BME280;53704;52.532;6.426;2023-04-27T04:58:37;102146.16;;;-1.27;100.00
63006;BME280;53704;52.532;6.426;2023-04-27T05:01:03;102148.81;;;-1.27;100.00
63006;BME280;53704;52.532;6.426;2023-04-27T05:03:29;102143.25;;;-1.19;100.00
63006;BME280;53704;52.532;6.426;2023-04-27T05:05:54;102145.91;;;-0.96;100.00
63006;BME280;53704;52.532;6.426;2023-04-27T05:08:19;102146.97;;;-1.01;100.00
63006;BME280;53704;52.532;6.426;2023-04-27T05:10:52;102141.19;;;-1.11;100.00
63006;BME280;53704;52.532;6.426;2023-04-27T05:13:18;102138.03;;;-0.97;100.00
63006;BME280;53704;52.532;6.426;2023-04-27T05:15:44;102149.84;;;-0.84;100.00
63006;BME280;53704;52.532;6.426;2023-04-27T05:18:09;102140.97;;;-0.81;100.00
63006;BME280;53704;52.532;6.426;2023-04-27T05:20:35;102153.94;;;-0.99;100.00
63006;BME280;53704;52.532;6.426;2023-04-27T05:23:01;102149.47;;;-0.97;100.00
63006;BME280;53704;52.532;6.426;2023-04-27T05:25:33;102159.06;;;-0.70;100.00
63006;BME280;53704;52.532;6.426;2023-04-27T05:27:59;102157.44;;;-0.51;100.00
63006;BME280;53704;52.532;6.426;2023-04-27T05:30:25;102158.41;;;-0.30;100.00
63006;BME280;53704;52.532;6.426;2023-04-27T05:32:51;102164.97;;;-0.18;100.00
63006;BME280;53704;52.532;6.426;2023-04-27T05:35:17;102163.81;;;-0.11;100.00
63006;BME280;53704;52.532;6.426;2023-04-27T05:37:42;102164.19;;;-0.20;100.00
63006;BME280;53704;52.532;6.426;2023-04-27T05:40:08;102173.03;;;-0.21;100.00
63006;BME280;53704;52.532;6.426;2023-04-27T05:42:36;102165.22;;;-0.24;100.00
63006;BME280;53704;52.532;6.426;2023-04-27T05:45:02;102164.25;;;-0.22;100.00
63006;BME280;53704;52.532;6.426;2023-04-27T05:47:29;102168.41;;;-0.16;100.00
63006;BME280;53704;52.532;6.426;2023-04-27T05:49:54;102170.13;;;-0.15;100.00
63006;BME280;53704;52.532;6.426;2023-04-27T05:52:20;102166.09;;;-0.02;100.00
63006;BME280;53704;52.532;6.426;2023-04-27T05:54:47;102178.19;;;0.04;100.00
63006;BME280;53704;52.532;6.426;2023-04-27T05:57:16;102170.63;;;0.17;100.00
63006;BME280;53704;52.532;6.426;2023-04-27T05:59:42;102165.44;;;0.14;100.00
63006;BME280;53704;52.532;6.426;2023-04-27T06:02:08;102173.53;;;0.31;100.00
63006;BME280;53704;52.532;6.426;2023-04-27T06:04:34;102170.28;;;0.25;100.00
63006;BME280;53704;52.532;6.426;2023-04-27T06:07:01;102179.84;;;0.29;100.00
63006;BME280;53704;52.532;6.426;2023-04-27T06:09:29;102173.22;;;0.39;100.00
63006;BME280;53704;52.532;6.426;2023-04-27T06:11:55;102178.78;;;0.53;100.00
63006;BME280;53704;52.532;6.426;2023-04-27T06:14:22;102170.31;;;0.66;100.00
63006;BME280;53704;52.532;6.426;2023-04-27T06:16:48;102182.72;;;0.86;100.00
63006;BME280;53704;52.532;6.426;2023-04-27T06:19:14;102177.78;;;0.97;100.00
63006;BME280;53704;52.532;6.426;2023-04-27T06:21:39;102172.63;;;0.94;100.00
63006;BME280;53704;52.532;6.426;2023-04-27T06:24:05;102176.03;;;1.17;100.00
63006;BME280;53704;52.532;6.426;2023-04-27T06:26:31;102169.94;;;1.34;100.00
63006;BME280;53704;52.532;6.426;2023-04-27T06:28:56;102172.31;;;1.40;100.00
63006;BME280;53704;52.532;6.426;2023-04-27T06:31:22;102165.94;;;1.63;100.00
63006;BME280;53704;52.532;6.426;2023-04-27T06:33:47;102164.34;;;1.78;100.00
63006;BME280;53704;52.532;6.426;2023-04-27T06:36:13;102171.09;;;1.85;100.00
63006;BME280;53704;52.532;6.426;2023-04-27T06:38:38;102175.25;;;2.08;100.00
63006;BME280;53704;52.532;6.426;2023-04-27T06:41:04;102177.00;;;2.09;100.00
63006;BME280;53704;52.532;6.426;2023-04-27T06:43:30;102174.97;;;2.32;100.00
63006;BME280;53704;52.532;6.426;2023-04-27T06:45:58;102175.50;;;2.39;100.00
63006;BME280;53704;52.532;6.426;2023-04-27T06:48:23;102178.25;;;2.54;100.00
63006;BME280;53704;52.532;6.426;2023-04-27T06:50:49;102173.44;;;2.63;100.00
63006;BME280;53704;52.532;6.426;2023-04-27T06:53:15;102174.03;;;2.68;100.00
63006;BME280;53704;52.532;6.426;2023-04-27T06:55:41;102170.59;;;2.83;100.00
63006;BME280;53704;52.532;6.426;2023-04-27T06:58:07;102163.94;;;3.08;100.00
63006;BME280;53704;52.532;6.426;2023-04-27T07:00:32;102165.03;;;3.21;100.00
63006;BME280;53704;52.532;6.426;2023-04-27T07:02:58;102152.91;;;3.32;100.00
63006;BME280;53704;52.532;6.426;2023-04-27T07:05:23;102158.25;;;3.48;100.00
63006;BME280;53704;52.532;6.426;2023-04-27T07:07:49;102153.38;;;3.56;100.00
63006;BME280;53704;52.532;6.426;2023-04-27T07:10:14;102154.91;;;3.76;100.00
63006;BME280;53704;52.532;6.426;2023-04-27T07:12:41;102146.97;;;3.90;100.00
63006;BME280;53704;52.532;6.426;2023-04-27T07:15:07;102149.63;;;4.06;100.00
63006;BME280;53704;52.532;6.426;2023-04-27T07:17:32;102163.88;;;4.21;100.00
63006;BME280;53704;52.532;6.426;2023-04-27T07:19:59;102152.91;;;4.42;100.00
63006;BME280;53704;52.532;6.426;2023-04-27T07:22:25;102152.34;;;4.51;100.00
63006;BME280;53704;52.532;6.426;2023-04-27T07:24:51;102157.97;;;4.61;100.00
63006;BME280;53704;52.532;6.426;2023-04-27T07:27:16;102156.28;;;4.74;100.00
63006;BME280;53704;52.532;6.426;2023-04-27T07:29:42;102156.97;;;4.92;100.00
63006;BME280;53704;52.532;6.426;2023-04-27T07:32:08;102159.84;;;5.03;100.00
63006;BME280;53704;52.532;6.426;2023-04-27T07:34:33;102156.22;;;5.19;100.00
63006;BME280;53704;52.532;6.426;2023-04-27T07:36:59;102156.03;;;5.22;100.00
63006;BME280;53704;52.532;6.426;2023-04-27T07:39:26;102151.72;;;5.34;100.00
63006;BME280;53704;52.532;6.426;2023-04-27T07:41:52;102155.91;;;5.38;100.00
63006;BME280;53704;52.532;6.426;2023-04-27T07:44:18;102154.63;;;5.58;100.00
63006;BME280;53704;52.532;6.426;2023-04-27T07:46:44;102155.97;;;5.65;100.00
63006;BME280;53704;52.532;6.426;2023-04-27T07:49:13;102160.13;;;5.84;100.00
63006;BME280;53704;52.532;6.426;2023-04-27T07:51:38;102161.03;;;5.97;100.00
63006;BME280;53704;52.532;6.426;2023-04-27T07:54:04;102162.78;;;5.98;100.00
63006;BME280;53704;52.532;6.426;2023-04-27T07:56:30;102165.78;;;6.06;100.00
63006;BME280;53704;52.532;6.426;2023-04-27T07:58:57;102168.28;;;6.22;100.00
63006;BME280;53704;52.532;6.426;2023-04-27T08:01:22;102169.13;;;6.23;100.00
63006;BME280;53704;52.532;6.426;2023-04-27T08:03:48;102169.94;;;6.38;100.00
63006;BME280;53704;52.532;6.426;2023-04-27T08:06:14;102160.00;;;6.52;100.00
63006;BME280;53704;52.532;6.426;2023-04-27T08:08:40;102157.66;;;6.61;100.00
63006;BME280;53704;52.532;6.426;2023-04-27T08:11:08;102162.38;;;6.70;100.00
63006;BME280;53704;52.532;6.426;2023-04-27T08:13:35;102169.69;;;6.94;100.00
63006;BME280;53704;52.532;6.426;2023-04-27T08:16:00;102166.78;;;6.97;100.00
63006;BME280;53704;52.532;6.426;2023-04-27T08:18:26;102162.63;;;7.05;100.00
63006;BME280;53704;52.532;6.426;2023-04-27T08:20:52;102168.91;;;7.17;100.00
63006;BME280;53704;52.532;6.426;2023-04-27T08:23:17;102175.53;;;7.37;100.00
63006;BME280;53704;52.532;6.426;2023-04-27T08:25:43;102162.34;;;7.47;100.00
63006;BME280;53704;52.532;6.426;2023-04-27T08:28:08;102158.59;;;7.50;100.00
63006;BME280;53704;52.532;6.426;2023-04-27T08:30:34;102152.69;;;7.57;100.00
63006;BME280;53704;52.532;6.426;2023-04-27T08:33:02;102162.25;;;7.73;100.00
63006;BME280;53704;52.532;6.426;2023-04-27T08:35:28;102163.94;;;7.87;100.00
63006;BME280;53704;52.532;6.426;2023-04-27T08:37:53;102157.31;;;8.04;100.00
63006;BME280;53704;52.532;6.426;2023-04-27T08:40:19;102156.44;;;8.27;100.00
63006;BME280;53704;52.532;6.426;2023-04-27T08:42:56;102156.72;;;8.36;100.00
63006;BME280;53704;52.532;6.426;2023-04-27T08:45:27;102155.34;;;8.54;100.00
63006;BME280;53704;52.532;6.426;2023-04-27T08:47:53;102157.19;;;8.65;95.11
63006;BME280;53704;52.532;6.426;2023-04-27T08:50:19;102157.22;;;8.76;96.05
63006;BME280;53704;52.532;6.426;2023-04-27T08:52:46;102156.41;;;8.98;95.97
63006;BME280;53704;52.532;6.426;2023-04-27T08:55:12;102150.78;;;9.01;94.78
63006;BME280;53704;52.532;6.426;2023-04-27T08:57:37;102144.19;;;9.17;96.27
63006;BME280;53704;52.532;6.426;2023-04-27T09:00:03;102143.94;;;9.20;91.65
63006;BME280;53704;52.532;6.426;2023-04-27T09:02:44;102145.53;;;9.22;82.24
63006;BME280;53704;52.532;6.426;2023-04-27T09:05:20;102154.03;;;9.50;86.37
63006;BME280;53704;52.532;6.426;2023-04-27T09:07:59;102155.09;;;9.82;82.39
63006;BME280;53704;52.532;6.426;2023-04-27T09:10:26;102141.31;;;10.07;79.71
63006;BME280;53704;52.532;6.426;2023-04-27T09:12:57;102147.88;;;9.82;73.56
63006;BME280;53704;52.532;6.426;2023-04-27T09:15:26;102144.22;;;10.16;76.76
63006;BME280;53704;52.532;6.426;2023-04-27T09:17:56;102152.03;;;10.51;77.32
63006;BME280;53704;52.532;6.426;2023-04-27T09:20:22;102140.84;;;10.56;84.71
63006;BME280;53704;52.532;6.426;2023-04-27T09:22:50;102140.66;;;10.68;81.91
63006;BME280;53704;52.532;6.426;2023-04-27T09:25:28;102139.34;;;10.42;73.49
63006;BME280;53704;52.532;6.426;2023-04-27T09:27:55;102143.22;;;10.70;69.38
63006;BME280;53704;52.532;6.426;2023-04-27T09:30:21;102140.25;;;10.73;68.07
63006;BME280;53704;52.532;6.426;2023-04-27T09:32:55;102143.13;;;11.02;66.62
63006;BME280;53704;52.532;6.426;2023-04-27T09:35:22;102128.91;;;11.31;61.29
63006;BME280;53704;52.532;6.426;2023-04-27T09:37:49;102133.59;;;10.98;65.01
63006;BME280;53704;52.532;6.426;2023-04-27T09:40:18;102138.91;;;11.19;62.45
63006;BME280;53704;52.532;6.426;2023-04-27T09:42:44;102125.53;;;11.39;61.21
63006;BME280;53704;52.532;6.426;2023-04-27T09:45:10;102130.50;;;11.44;61.30
63006;BME280;53704;52.532;6.426;2023-04-27T09:47:36;102122.94;;;11.88;62.38
63006;BME280;53704;52.532;6.426;2023-04-27T09:50:04;102125.28;;;11.62;56.58
63006;BME280;53704;52.532;6.426;2023-04-27T09:52:31;102125.94;;;12.14;59.37
63006;BME280;53704;52.532;6.426;2023-04-27T09:54:57;102126.91;;;11.93;58.59
63006;BME280;53704;52.532;6.426;2023-04-27T09:57:35;102126.06;;;12.22;56.95
63006;BME280;53704;52.532;6.426;2023-04-27T10:05:52;102116.72;;;12.07;58.96
63006;BME280;53704;52.532;6.426;2023-04-27T10:08:28;102114.41;;;12.31;53.33
63006;BME280;53704;52.532;6.426;2023-04-27T10:10:56;102111.53;;;12.62;53.92
63006;BME280;53704;52.532;6.426;2023-04-27T10:13:25;102116.06;;;12.52;57.15
63006;BME280;53704;52.532;6.426;2023-04-27T10:15:52;102109.78;;;12.81;53.61
63006;BME280;53704;52.532;6.426;2023-04-27T10:18:30;102106.81;;;12.64;53.73
63006;BME280;53704;52.532;6.426;2023-04-27T10:20:56;102106.69;;;12.56;53.42
63006;BME280;53704;52.532;6.426;2023-04-27T10:23:25;102101.03;;;12.97;57.26
63006;BME280;53704;52.532;6.426;2023-04-27T10:25:52;102098.47;;;12.48;53.80
63006;BME280;53704;52.532;6.426;2023-04-27T10:28:18;102096.47;;;12.97;53.07
63006;BME280;53704;52.532;6.426;2023-04-27T10:30:46;102094.03;;;13.32;51.97
63006;BME280;53704;52.532;6.426;2023-04-27T10:33:21;102096.63;;;13.33;49.38
63006;BME280;53704;52.532;6.426;2023-04-27T10:35:57;102099.22;;;12.88;54.43
63006;BME280;53704;52.532;6.426;2023-04-27T10:38:28;102094.84;;;13.42;54.17
63006;BME280;53704;52.532;6.426;2023-04-27T10:40:55;102094.25;;;13.11;46.88
63006;BME280;53704;52.532;6.426;2023-04-27T10:43:24;102091.84;;;12.80;49.77
63006;BME280;53704;52.532;6.426;2023-04-27T10:45:54;102089.47;;;13.60;47.88
63006;BME280;53704;52.532;6.426;2023-04-27T10:48:20;102091.31;;;14.14;51.28
63006;BME280;53704;52.532;6.426;2023-04-27T10:50:46;102088.38;;;14.25;48.70
63006;BME280;53704;52.532;6.426;2023-04-27T10:53:13;102089.63;;;13.77;46.68
63006;BME280;53704;52.532;6.426;2023-04-27T10:55:39;102095.63;;;14.42;49.18
63006;BME280;53704;52.532;6.426;2023-04-27T10:58:05;102086.88;;;14.30;49.17
63006;BME280;53704;52.532;6.426;2023-04-27T11:00:34;102093.25;;;14.65;46.72
63006;BME280;53704;52.532;6.426;2023-04-27T11:03:11;102085.16;;;14.03;42.05
63006;BME280;53704;52.532;6.426;2023-04-27T11:05:38;102084.44;;;14.63;47.66
63006;BME280;53704;52.532;6.426;2023-04-27T11:08:12;102079.56;;;14.49;46.57
63006;BME280;53704;52.532;6.426;2023-04-27T11:10:39;102084.88;;;14.59;51.02
63006;BME280;53704;52.532;6.426;2023-04-27T11:13:18;102079.38;;;14.95;49.69
63006;BME280;53704;52.532;6.426;2023-04-27T11:15:55;102076.06;;;14.83;46.10
63006;BME280;53704;52.532;6.426;2023-04-27T11:18:30;102073.94;;;14.42;44.50
63006;BME280;53704;52.532;6.426;2023-04-27T11:23:31;102078.72;;;15.01;45.44
63006;BME280;53704;52.532;6.426;2023-04-27T11:26:18;102069.03;;;14.98;49.57
63006;BME280;53704;52.532;6.426;2023-04-27T11:29:00;102072.88;;;15.30;50.86
63006;BME280;53704;52.532;6.426;2023-04-27T11:31:27;102070.53;;;15.35;49.81
63006;BME280;53704;52.532;6.426;2023-04-27T11:33:53;102069.66;;;15.35;49.43
63006;BME280;53704;52.532;6.426;2023-04-27T11:36:21;102070.97;;;14.80;41.51
63006;BME280;53704;52.532;6.426;2023-04-27T11:38:47;102067.94;;;16.01;44.48
63006;BME280;53704;52.532;6.426;2023-04-27T11:41:13;102066.06;;;15.94;47.28
63006;BME280;53704;52.532;6.426;2023-04-27T11:43:42;102078.81;;;15.85;43.10
63006;BME280;53704;52.532;6.426;2023-04-27T11:46:11;102064.72;;;16.14;41.57
63006;BME280;53704;52.532;6.426;2023-04-27T11:48:37;102065.41;;;15.83;44.54
63006;BME280;53704;52.532;6.426;2023-04-27T11:51:03;102056.34;;;15.74;45.42
63006;BME280;53704;52.532;6.426;2023-04-27T11:53:34;102059.78;;;16.26;45.17
63006;BME280;53704;52.532;6.426;2023-04-27T11:56:05;102052.16;;;16.21;43.46
63006;BME280;53704;52.532;6.426;2023-04-27T11:58:33;102054.94;;;16.69;43.90
63006;BME280;53704;52.532;6.426;2023-04-27T12:00:59;102052.63;;;17.06;42.21
63006;BME280;53704;52.532;6.426;2023-04-27T12:03:24;102053.66;;;15.83;42.12
63006;BME280;53704;52.532;6.426;2023-04-27T12:05:51;102060.81;;;16.08;44.35
63006;BME280;53704;52.532;6.426;2023-04-27T12:08:17;102052.00;;;15.82;41.26
63006;BME280;53704;52.532;6.426;2023-04-27T12:10:43;102060.75;;;15.08;42.95
63006;BME280;53704;52.532;6.426;2023-04-27T12:13:09;102047.31;;;15.41;43.86
63006;BME280;53704;52.532;6.426;2023-04-27T12:15:39;102046.84;;;16.36;41.25
63006;BME280;53704;52.532;6.426;2023-04-27T12:18:05;102046.72;;;16.30;43.77
63006;BME280;53704;52.532;6.426;2023-04-27T12:20:30;102050.78;;;16.17;39.06
63006;BME280;53704;52.532;6.426;2023-04-27T12:22:56;102053.50;;;16.98;41.19
63006;BME280;53704;52.532;6.426;2023-04-27T12:25:22;102048.53;;;15.63;40.05
63006;BME280;53704;52.532;6.426;2023-04-27T12:27:48;102048.91;;;16.34;39.26
63006;BME280;53704;52.532;6.426;2023-04-27T12:30:14;102049.88;;;16.58;37.75
63006;BME280;53704;52.532;6.426;2023-04-27T12:32:40;102040.28;;;17.26;39.98
63006;BME280;53704;52.532;6.426;2023-04-27T12:35:06;102042.94;;;17.34;39.69
63006;BME280;53704;52.532;6.426;2023-04-27T12:37:35;102042.81;;;16.96;40.53
63006;BME280;53704;52.532;6.426;2023-04-27T12:40:04;102036.38;;;17.52;39.06
63006;BME280;53704;52.532;6.426;2023-04-27T12:42:33;102036.41;;;17.21;40.49
63006;BME280;53704;52.532;6.426;2023-04-27T12:44:59;102042.09;;;17.03;38.46
63006;BME280;53704;52.532;6.426;2023-04-27T12:47:24;102038.25;;;17.51;40.27
63006;BME280;53704;52.532;6.426;2023-04-27T12:49:50;102039.41;;;16.38;39.25
63006;BME280;53704;52.532;6.426;2023-04-27T12:52:16;102034.06;;;15.30;40.08
63006;BME280;53704;52.532;6.426;2023-04-27T12:54:41;102031.38;;;16.53;42.46